createdAt,value
2023-01-09T00:00:55.822Z,10.30
2023-01-09T00:03:26.105Z,10.31
2023-01-09T00:05:53.170Z,10.31
2023-01-09T00:08:20.067Z,10.29
2023-01-09T00:10:49.236Z,10.26
2023-01-09T00:13:18.100Z,10.22
2023-01-09T00:15:45.344Z,10.24
2023-01-09T00:18:12.118Z,10.20
2023-01-09T00:20:39.125Z,10.17
2023-01-09T00:23:05.969Z,10.15
2023-01-09T00:25:33.596Z,10.15
2023-01-09T00:28:00.424Z,10.14
2023-01-09T00:30:27.499Z,10.13
2023-01-09T00:32:54.843Z,10.13
2023-01-09T00:35:22.879Z,10.11
2023-01-09T00:37:49.626Z,10.09
2023-01-09T00:40:17.400Z,10.07
2023-01-09T00:42:46.056Z,10.02
2023-01-09T00:45:20.044Z,10.05
2023-01-09T00:47:48.769Z,10.05
2023-01-09T00:50:21.700Z,10.02
2023-01-09T00:52:48.568Z,10.00
2023-01-09T00:55:15.639Z,10.02
2023-01-09T00:57:42.422Z,9.98
2023-01-09T01:00:10.407Z,9.96
2023-01-09T01:02:37.178Z,9.97
2023-01-09T01:05:22.914Z,9.93
2023-01-09T01:07:49.694Z,9.91
2023-01-09T01:10:22.710Z,9.90
2023-01-09T01:12:49.674Z,9.92
2023-01-09T01:15:17.240Z,9.91
2023-01-09T01:17:44.069Z,9.83
2023-01-09T01:20:16.227Z,9.84
2023-01-09T01:22:43.151Z,9.84
2023-01-09T01:25:11.132Z,9.85
2023-01-09T01:27:37.964Z,9.86
2023-01-09T01:30:06.410Z,9.85
2023-01-09T01:32:33.163Z,9.83
2023-01-09T01:35:00.197Z,9.82
2023-01-09T01:37:27.846Z,9.81
2023-01-09T01:39:55.033Z,9.82
2023-01-09T01:42:21.926Z,9.83
2023-01-09T01:44:55.100Z,9.83
2023-01-09T01:47:22.087Z,9.81
2023-01-09T01:49:49.156Z,9.78
2023-01-09T01:52:16.196Z,9.77
2023-01-09T01:54:43.248Z,9.72
2023-01-09T01:57:09.978Z,9.75
2023-01-09T01:59:42.454Z,9.72
2023-01-09T02:02:09.339Z,9.70
2023-01-09T02:04:39.276Z,9.71
2023-01-09T02:07:09.799Z,9.68
2023-01-09T02:09:37.771Z,9.72
2023-01-09T02:12:37.044Z,9.73
2023-01-09T02:15:12.435Z,9.70
2023-01-09T02:17:54.978Z,9.68
2023-01-09T02:20:44.083Z,9.66
2023-01-09T02:23:22.722Z,9.64
2023-01-09T02:26:35.123Z,9.68
2023-01-09T02:29:23.639Z,9.62
2023-01-09T02:32:11.633Z,9.63
2023-01-09T02:34:59.189Z,9.62
2023-01-09T02:37:32.291Z,9.58
2023-01-09T02:40:07.551Z,9.59
2023-01-09T02:42:34.608Z,9.61
2023-01-09T02:45:01.350Z,9.62
2023-01-09T02:47:29.371Z,9.60
2023-01-09T02:49:58.089Z,9.56
2023-01-09T02:52:51.625Z,9.58
2023-01-09T02:55:43.765Z,9.60
2023-01-09T02:58:33.985Z,9.59
2023-01-09T03:01:22.234Z,9.61
2023-01-09T03:03:58.309Z,9.56
2023-01-09T03:06:40.219Z,9.53
2023-01-09T03:09:10.779Z,9.54
2023-01-09T03:11:40.530Z,9.51
2023-01-09T03:14:11.158Z,9.53
2023-01-09T03:16:38.147Z,9.47
2023-01-09T03:19:07.384Z,9.52
2023-01-09T03:21:34.131Z,9.50
2023-01-09T03:24:01.731Z,9.44
2023-01-09T03:26:31.280Z,9.51
2023-01-09T03:28:58.963Z,9.50
2023-01-09T03:31:25.785Z,9.43
2023-01-09T03:33:52.916Z,9.44
2023-01-09T03:36:20.426Z,9.50
2023-01-09T03:38:47.558Z,9.45
2023-01-09T03:41:14.307Z,9.46
2023-01-09T03:43:41.391Z,9.45
2023-01-09T03:46:08.145Z,9.46
2023-01-09T03:48:35.249Z,9.41
2023-01-09T03:51:02.090Z,9.48
2023-01-09T03:53:29.215Z,9.45
2023-01-09T03:55:56.667Z,9.41
2023-01-09T03:58:23.917Z,9.41
2023-01-09T04:00:51.050Z,9.42
2023-01-09T04:03:19.425Z,9.41
2023-01-09T04:05:46.823Z,9.38
2023-01-09T04:08:13.991Z,9.39
2023-01-09T04:10:40.783Z,9.35
2023-01-09T04:13:07.875Z,9.36
2023-01-09T04:15:34.591Z,9.38
2023-01-09T04:18:02.095Z,9.30
2023-01-09T04:20:28.898Z,9.31
2023-01-09T04:22:55.950Z,9.32
2023-01-09T04:25:25.617Z,9.32
2023-01-09T04:27:53.022Z,9.32
2023-01-09T04:30:19.849Z,9.28
2023-01-09T04:32:46.904Z,9.31
2023-01-09T04:35:13.683Z,9.33
2023-01-09T04:37:40.743Z,9.31
2023-01-09T04:40:12.091Z,9.27
2023-01-09T04:42:39.341Z,9.29
2023-01-09T04:45:06.799Z,9.30
2023-01-09T04:47:33.862Z,9.31
2023-01-09T04:50:00.874Z,9.35
2023-01-09T04:52:28.192Z,9.32
2023-01-09T04:54:54.986Z,9.28
2023-01-09T04:57:22.019Z,9.32
2023-01-09T04:59:48.768Z,9.31
2023-01-09T05:02:15.882Z,9.24
2023-01-09T05:04:42.684Z,9.24
2023-01-09T05:07:09.755Z,9.28
2023-01-09T05:09:36.892Z,9.27
2023-01-09T05:12:04.176Z,9.31
2023-01-09T05:14:30.942Z,9.33
2023-01-09T05:16:57.961Z,9.36
2023-01-09T05:19:24.754Z,9.36
2023-01-09T05:21:51.835Z,9.28
2023-01-09T05:24:18.671Z,9.29
2023-01-09T05:26:45.711Z,9.35
2023-01-09T05:29:12.503Z,9.29
2023-01-09T05:31:39.576Z,9.32
2023-01-09T05:34:06.353Z,9.34
2023-01-09T05:36:33.491Z,9.35
2023-01-09T05:39:00.406Z,9.38
2023-01-09T05:41:27.628Z,9.41
2023-01-09T05:43:54.397Z,9.44
2023-01-09T05:46:21.450Z,9.42
2023-01-09T05:48:48.142Z,9.35
2023-01-09T05:51:15.150Z,9.39
2023-01-09T05:53:41.950Z,9.39
2023-01-09T05:56:11.263Z,9.42
2023-01-09T05:58:38.371Z,9.42
2023-01-09T06:01:05.684Z,9.39
2023-01-09T06:03:32.929Z,9.40
2023-01-09T06:06:00.015Z,9.38
2023-01-09T06:08:26.760Z,9.40
2023-01-09T06:10:53.744Z,9.39
2023-01-09T06:13:20.506Z,9.41
2023-01-09T06:15:48.106Z,9.43
2023-01-09T06:18:14.963Z,9.42
2023-01-09T06:20:42.138Z,9.41
2023-01-09T06:23:08.929Z,9.42
2023-01-09T06:25:35.921Z,9.42
2023-01-09T06:28:02.628Z,9.42
2023-01-09T06:30:29.712Z,9.44
2023-01-09T06:32:56.477Z,9.43
2023-01-09T06:35:23.648Z,9.41
2023-01-09T06:37:50.502Z,9.44
2023-01-09T06:40:17.982Z,9.46
2023-01-09T06:42:47.995Z,9.46
2023-01-09T06:45:15.623Z,9.47
2023-01-09T06:47:42.362Z,9.48
2023-01-09T06:50:10.033Z,9.50
2023-01-09T06:52:37.123Z,9.48
2023-01-09T06:55:04.893Z,9.43
2023-01-09T06:57:31.599Z,9.46
2023-01-09T06:59:58.652Z,9.47
2023-01-09T07:02:25.478Z,9.49
2023-01-09T07:04:52.918Z,9.50
2023-01-09T07:07:20.479Z,9.51
2023-01-09T07:09:47.519Z,9.54
2023-01-09T07:12:15.482Z,9.50
2023-01-09T07:14:42.559Z,9.54
2023-01-09T07:17:11.678Z,9.47
2023-01-09T07:19:38.868Z,9.49
2023-01-09T07:22:05.621Z,9.54
2023-01-09T07:24:32.626Z,9.51
2023-01-09T07:26:59.281Z,9.54
2023-01-09T07:29:27.328Z,9.55
2023-01-09T07:31:54.008Z,9.55
2023-01-09T07:34:20.943Z,9.54
2023-01-09T07:36:48.793Z,9.55
2023-01-09T07:39:15.759Z,9.54
2023-01-09T07:41:42.480Z,9.61
2023-01-09T07:44:11.103Z,9.62
2023-01-09T07:46:37.993Z,9.60
2023-01-09T07:49:05.117Z,9.60
2023-01-09T07:51:31.761Z,9.64
2023-01-09T07:53:58.778Z,9.69
2023-01-09T07:56:25.496Z,9.69
2023-01-09T07:58:52.504Z,9.76
2023-01-09T08:01:19.286Z,9.70
2023-01-09T08:03:46.294Z,9.69
2023-01-09T08:06:12.959Z,9.76
2023-01-09T08:08:39.882Z,9.78
2023-01-09T08:11:06.597Z,9.75
2023-01-09T08:13:33.556Z,9.78
2023-01-09T08:16:00.359Z,9.83
2023-01-09T08:18:27.291Z,9.81
2023-01-09T08:20:53.933Z,9.87
2023-01-09T08:23:20.869Z,9.89
2023-01-09T08:25:47.535Z,9.94
2023-01-09T08:28:14.507Z,9.93
2023-01-09T08:30:41.280Z,9.99
2023-01-09T08:33:08.235Z,9.99
2023-01-09T08:35:35.428Z,9.97
2023-01-09T08:38:02.560Z,10.01
2023-01-09T08:40:29.263Z,10.01
2023-01-09T08:43:14.808Z,10.07
2023-01-09T08:46:00.248Z,10.08
2023-01-09T08:48:27.196Z,10.13
2023-01-09T08:50:54.357Z,10.13
2023-01-09T08:53:21.350Z,10.12
2023-01-09T08:55:48.104Z,10.13
2023-01-09T08:58:15.045Z,10.17
2023-01-09T09:00:41.747Z,10.13
2023-01-09T09:03:09.104Z,10.11
2023-01-09T09:05:35.884Z,10.14
2023-01-09T09:08:03.997Z,10.16
2023-01-09T09:10:30.708Z,10.19
2023-01-09T09:12:58.311Z,10.25
2023-01-09T09:15:26.581Z,10.22
2023-01-09T09:17:58.386Z,10.25
2023-01-09T09:20:27.026Z,10.28
2023-01-09T09:22:54.624Z,10.31
2023-01-09T09:25:21.439Z,10.29
2023-01-09T09:27:48.615Z,10.33
2023-01-09T09:30:16.644Z,10.38
2023-01-09T09:32:43.599Z,10.38
2023-01-09T09:35:10.359Z,10.37
2023-01-09T09:37:37.600Z,10.43
2023-01-09T09:40:17.528Z,10.42
2023-01-09T09:43:13.325Z,10.50
2023-01-09T09:45:49.129Z,10.52
2023-01-09T09:48:25.140Z,10.51
2023-01-09T09:51:00.897Z,10.49
2023-01-09T09:53:38.791Z,10.52
2023-01-09T09:56:05.676Z,10.52
2023-01-09T09:58:37.819Z,10.56
2023-01-09T10:01:05.058Z,10.56
2023-01-09T10:03:41.663Z,10.62
2023-01-09T10:06:42.302Z,10.62
2023-01-09T10:09:24.932Z,10.64
2023-01-09T10:12:23.651Z,10.61
2023-01-09T10:14:50.578Z,10.69
2023-01-09T10:17:24.247Z,10.74
2023-01-09T10:20:17.197Z,10.72
2023-01-09T10:23:21.618Z,10.74
2023-01-09T10:26:02.227Z,10.79
2023-01-09T10:28:59.998Z,10.79
2023-01-09T10:31:36.758Z,10.82
2023-01-09T10:34:25.291Z,10.82
2023-01-09T10:37:02.183Z,10.88
2023-01-09T10:39:36.432Z,10.86
2023-01-09T10:42:21.329Z,10.87
2023-01-09T10:44:53.362Z,10.92
2023-01-09T10:47:32.291Z,10.93
2023-01-09T10:49:59.005Z,10.97
2023-01-09T10:52:32.279Z,10.99
2023-01-09T10:55:14.291Z,11.00
2023-01-09T10:57:45.566Z,10.99
2023-01-09T11:00:23.094Z,11.01
2023-01-09T11:02:51.361Z,11.00
2023-01-09T11:05:29.586Z,11.02
2023-01-09T11:08:12.023Z,11.07
2023-01-09T11:10:49.850Z,11.04
2023-01-09T11:13:21.566Z,11.07
2023-01-09T11:16:05.536Z,11.07
2023-01-09T11:18:41.059Z,11.09
2023-01-09T11:21:34.144Z,11.06
2023-01-09T11:24:19.364Z,11.12
2023-01-09T11:26:46.693Z,11.12
2023-01-09T11:29:15.151Z,11.13
2023-01-09T11:31:43.082Z,11.16
2023-01-09T11:34:17.556Z,11.17
2023-01-09T11:36:44.451Z,11.16
2023-01-09T11:39:28.333Z,11.22
2023-01-09T11:42:02.095Z,11.20
2023-01-09T11:44:29.221Z,11.24
2023-01-09T11:46:56.120Z,11.24
2023-01-09T11:49:28.165Z,11.28
2023-01-09T11:52:17.619Z,11.28
2023-01-09T11:54:50.351Z,11.29
2023-01-09T11:57:22.971Z,11.31
2023-01-09T11:59:56.047Z,11.33
2023-01-09T12:02:30.066Z,11.36
2023-01-09T12:05:02.263Z,11.38
2023-01-09T12:07:35.660Z,11.38
2023-01-09T12:10:36.753Z,11.40
2023-01-09T12:13:15.799Z,11.40
2023-01-09T12:15:51.936Z,11.43
2023-01-09T12:18:23.918Z,11.46
2023-01-09T12:20:55.277Z,11.49
2023-01-09T12:23:24.968Z,11.48
2023-01-09T12:25:58.552Z,11.50
2023-01-09T12:28:34.627Z,11.49
2023-01-09T12:31:04.265Z,11.50
2023-01-09T12:33:59.953Z,11.51
2023-01-09T12:36:42.695Z,11.52
2023-01-09T12:39:31.864Z,11.56
2023-01-09T12:42:04.811Z,11.57
2023-01-09T12:44:45.467Z,11.56
2023-01-09T12:47:13.045Z,11.57
2023-01-09T12:49:41.717Z,11.60
2023-01-09T12:52:34.835Z,11.62
2023-01-09T12:55:13.474Z,11.62
2023-01-09T12:57:42.103Z,11.62
2023-01-09T13:00:18.919Z,11.63
2023-01-09T13:02:48.494Z,11.64
2023-01-09T13:05:17.453Z,11.62
2023-01-09T13:07:59.120Z,11.64
2023-01-09T13:10:33.287Z,11.64
2023-01-09T13:13:06.390Z,11.67
2023-01-09T13:15:36.741Z,11.68
2023-01-09T13:18:14.385Z,11.70
2023-01-09T13:20:49.353Z,11.72
2023-01-09T13:23:57.384Z,11.74
2023-01-09T13:26:37.932Z,11.73
2023-01-09T13:29:25.396Z,11.75
2023-01-09T13:32:13.444Z,11.76
2023-01-09T13:34:40.535Z,11.75
2023-01-09T13:37:13.738Z,11.75
2023-01-09T13:39:40.687Z,11.76
2023-01-09T13:42:26.552Z,11.81
2023-01-09T13:44:55.090Z,11.80
2023-01-09T13:47:28.260Z,11.80
2023-01-09T13:50:20.077Z,11.81
2023-01-09T13:52:46.840Z,11.79
2023-01-09T13:55:16.827Z,11.81
2023-01-09T13:57:45.120Z,11.81
2023-01-09T14:00:12.043Z,11.82
2023-01-09T14:02:38.680Z,11.83
2023-01-09T14:05:09.888Z,11.87
2023-01-09T14:07:37.570Z,11.81
2023-01-09T14:10:23.559Z,11.82
2023-01-09T14:12:50.564Z,11.84
2023-01-09T14:15:37.957Z,11.88
2023-01-09T14:18:14.842Z,11.84
2023-01-09T14:20:43.996Z,11.84
2023-01-09T14:23:52.112Z,11.84
2023-01-09T14:26:25.000Z,11.87
2023-01-09T14:28:51.891Z,11.85
2023-01-09T14:31:28.386Z,11.87
2023-01-09T14:34:31.894Z,11.85
2023-01-09T14:37:00.076Z,11.86
2023-01-09T14:39:27.468Z,11.85
2023-01-09T14:42:00.683Z,11.83
2023-01-09T14:44:31.850Z,11.83
2023-01-09T14:47:20.295Z,11.80
2023-01-09T14:50:16.668Z,11.80
2023-01-09T14:53:05.655Z,11.78
2023-01-09T14:55:51.099Z,11.80
2023-01-09T14:58:18.032Z,11.77
2023-01-09T15:01:08.638Z,11.76
2023-01-09T15:03:41.924Z,11.76
2023-01-09T15:06:17.021Z,11.76
2023-01-09T15:08:47.112Z,11.76
2023-01-09T15:11:14.967Z,11.72
2023-01-09T15:13:44.281Z,11.73
2023-01-09T15:16:21.063Z,11.73
2023-01-09T15:18:50.246Z,11.72
2023-01-09T15:21:19.523Z,11.71
2023-01-09T15:23:46.575Z,11.70
2023-01-09T15:26:27.121Z,11.68
2023-01-09T15:29:00.721Z,11.69
2023-01-09T15:31:27.467Z,11.67
2023-01-09T15:33:54.471Z,11.67
2023-01-09T15:36:23.814Z,11.65
2023-01-09T15:38:51.025Z,11.65
2023-01-09T15:41:39.628Z,11.63
2023-01-09T15:44:07.385Z,11.64
2023-01-09T15:46:34.073Z,11.60
2023-01-09T15:49:01.106Z,11.60
2023-01-09T15:51:27.810Z,11.59
2023-01-09T15:53:57.500Z,11.60
2023-01-09T15:56:25.139Z,11.59
2023-01-09T15:58:55.233Z,11.57
2023-01-09T16:01:25.028Z,11.58
2023-01-09T16:03:53.487Z,11.59
2023-01-09T16:06:26.624Z,11.56
2023-01-09T16:08:56.032Z,11.58
2023-01-09T16:11:36.401Z,11.56
2023-01-09T16:14:20.747Z,11.54
2023-01-09T16:16:47.490Z,11.52
2023-01-09T16:19:45.313Z,11.57
2023-01-09T16:22:31.895Z,11.52
2023-01-09T16:25:02.592Z,11.49
2023-01-09T16:27:30.861Z,11.52
2023-01-09T16:29:59.469Z,11.52
2023-01-09T16:32:31.720Z,11.51
2023-01-09T16:35:06.025Z,11.50
2023-01-09T16:37:33.331Z,11.51
2023-01-09T16:40:18.648Z,11.43
2023-01-09T16:43:00.596Z,11.47
2023-01-09T16:45:28.739Z,11.47
2023-01-09T16:47:55.539Z,11.45
2023-01-09T16:50:23.917Z,11.44
2023-01-09T16:52:51.340Z,11.43
2023-01-09T16:55:18.287Z,11.42
2023-01-09T16:57:44.976Z,11.38
2023-01-09T17:00:19.306Z,11.36
2023-01-09T17:02:46.059Z,11.36
2023-01-09T17:05:13.385Z,11.37
2023-01-09T17:07:40.399Z,11.34
2023-01-09T17:10:15.914Z,11.35
2023-01-09T17:12:42.722Z,11.34
2023-01-09T17:15:10.538Z,11.33
2023-01-09T17:17:37.252Z,11.37
2023-01-09T17:20:14.073Z,11.34
2023-01-09T17:22:40.730Z,11.34
2023-01-09T17:25:31.816Z,11.30
2023-01-09T17:28:17.168Z,11.31
2023-01-09T17:30:44.161Z,11.33
2023-01-09T17:33:18.372Z,11.32
2023-01-09T17:35:45.445Z,11.31
2023-01-09T17:38:15.839Z,11.35
2023-01-09T17:40:43.226Z,11.28
2023-01-09T17:43:10.171Z,11.31
2023-01-09T17:45:37.915Z,11.26
2023-01-09T17:48:04.945Z,11.22
2023-01-09T17:50:34.660Z,11.22
2023-01-09T17:53:01.294Z,11.24
2023-01-09T17:55:28.246Z,11.27
2023-01-09T17:57:54.882Z,11.23
2023-01-09T18:00:26.550Z,11.24
2023-01-09T18:02:54.059Z,11.17
2023-01-09T18:05:24.387Z,11.25
2023-01-09T18:07:51.371Z,11.18
2023-01-09T18:10:19.929Z,11.21
2023-01-09T18:12:47.800Z,11.16
2023-01-09T18:15:14.845Z,11.17
2023-01-09T18:17:41.900Z,11.17
2023-01-09T18:20:10.718Z,11.17
2023-01-09T18:22:37.438Z,11.14
2023-01-09T18:25:05.362Z,11.13
2023-01-09T18:27:32.032Z,11.14
2023-01-09T18:30:01.692Z,11.17
2023-01-09T18:32:29.205Z,11.14
2023-01-09T18:34:56.239Z,11.14
2023-01-09T18:37:22.868Z,11.18
2023-01-09T18:39:50.447Z,11.17
2023-01-09T18:42:17.149Z,11.19
2023-01-09T18:44:44.089Z,11.16
2023-01-09T18:47:10.745Z,11.10
2023-01-09T18:49:37.933Z,11.13
2023-01-09T18:52:07.397Z,11.14
2023-01-09T18:54:34.551Z,11.13
2023-01-09T18:57:01.320Z,11.16
2023-01-09T18:59:28.253Z,11.16
2023-01-09T19:01:54.941Z,11.13
2023-01-09T19:04:22.097Z,11.11
2023-01-09T19:06:49.444Z,11.14
2023-01-09T19:09:16.424Z,11.12
2023-01-09T19:11:46.115Z,11.08
2023-01-09T19:14:13.204Z,11.13
2023-01-09T19:16:39.976Z,11.09
2023-01-09T19:19:08.499Z,11.12
2023-01-09T19:21:35.473Z,11.06
2023-01-09T19:24:02.428Z,11.08
2023-01-09T19:26:30.874Z,11.02
2023-01-09T19:28:59.256Z,11.07
2023-01-09T19:31:26.519Z,11.08
2023-01-09T19:33:53.693Z,11.06
2023-01-09T19:36:21.514Z,11.07
2023-01-09T19:38:48.608Z,11.03
2023-01-09T19:41:19.242Z,11.17
2023-01-09T19:43:47.104Z,11.17
2023-01-09T19:46:24.295Z,11.09
2023-01-09T19:48:51.887Z,11.10
2023-01-09T19:51:19.526Z,11.05
2023-01-09T19:53:53.652Z,11.08
2023-01-09T19:56:21.994Z,11.08
2023-01-09T19:58:50.759Z,11.06
2023-01-09T20:01:24.679Z,11.04
2023-01-09T20:03:51.930Z,11.04
2023-01-09T20:06:22.357Z,11.01
2023-01-09T20:08:53.786Z,11.02
2023-01-09T20:11:20.912Z,11.00
2023-01-09T20:13:47.952Z,11.07
2023-01-09T20:16:20.335Z,11.01
2023-01-09T20:18:47.547Z,11.04
2023-01-09T20:21:18.642Z,10.99
2023-01-09T20:23:45.607Z,11.01
2023-01-09T20:26:13.607Z,10.98
2023-01-09T20:28:40.540Z,11.00
2023-01-09T20:31:09.593Z,11.05
2023-01-09T20:33:36.637Z,11.05
2023-01-09T20:36:04.813Z,11.06
2023-01-09T20:38:32.507Z,11.02
2023-01-09T20:41:09.883Z,10.99
2023-01-09T20:43:37.776Z,11.00
2023-01-09T20:46:05.055Z,11.01
2023-01-09T20:48:32.304Z,11.00
2023-01-09T20:51:06.828Z,10.99
2023-01-09T20:53:33.855Z,11.03
2023-01-09T20:56:01.805Z,10.99
2023-01-09T20:58:28.865Z,11.03
2023-01-09T21:00:55.571Z,11.01
2023-01-09T21:03:22.739Z,11.01
2023-01-09T21:05:49.371Z,10.98
2023-01-09T21:08:17.014Z,10.98
2023-01-09T21:10:43.745Z,11.00
2023-01-09T21:13:10.752Z,11.01
2023-01-09T21:15:38.555Z,11.00
2023-01-09T21:18:05.795Z,10.94
2023-01-09T21:20:32.454Z,10.93
2023-01-09T21:22:59.408Z,10.98
2023-01-09T21:25:26.395Z,10.95
2023-01-09T21:27:53.344Z,10.96
2023-01-09T21:30:20.006Z,10.96
2023-01-09T21:32:46.973Z,10.96
2023-01-09T21:35:13.632Z,10.98
2023-01-09T21:37:40.584Z,10.92
2023-01-09T21:40:14.284Z,10.96
2023-01-09T21:43:00.130Z,10.90
2023-01-09T21:45:45.435Z,10.93
2023-01-09T21:48:12.454Z,10.95
2023-01-09T21:50:41.005Z,10.89
2023-01-09T21:53:08.126Z,10.90
2023-01-09T21:55:35.748Z,10.93
2023-01-09T21:58:03.482Z,10.91
2023-01-09T22:00:30.234Z,10.92
2023-01-09T22:02:57.776Z,10.92
2023-01-09T22:05:24.682Z,10.90
2023-01-09T22:07:51.671Z,10.90
2023-01-09T22:10:18.358Z,10.87
2023-01-09T22:13:05.306Z,10.85
2023-01-09T22:15:32.441Z,10.88
2023-01-09T22:17:59.371Z,10.90
2023-01-09T22:20:26.097Z,10.86
2023-01-09T22:22:53.128Z,10.85
2023-01-09T22:25:22.681Z,10.87
2023-01-09T22:27:49.732Z,10.87
2023-01-09T22:30:16.644Z,10.85
2023-01-09T22:32:43.810Z,10.89
2023-01-09T22:35:10.516Z,10.89
2023-01-09T22:37:37.537Z,10.87
2023-01-09T22:40:06.765Z,10.86
2023-01-09T22:42:33.754Z,10.83
2023-01-09T22:45:00.453Z,10.85
2023-01-09T22:47:27.644Z,10.80
2023-01-09T22:49:54.330Z,10.82
2023-01-09T22:52:21.874Z,10.80
2023-01-09T22:54:48.570Z,10.84
2023-01-09T22:57:15.648Z,10.84
2023-01-09T22:59:42.397Z,10.79
2023-01-09T23:02:09.507Z,10.80
2023-01-09T23:04:36.238Z,10.77
2023-01-09T23:07:03.203Z,10.79
2023-01-09T23:09:29.913Z,10.82
2023-01-09T23:12:02.881Z,10.79
2023-01-09T23:14:30.805Z,10.75
2023-01-09T23:16:57.847Z,10.72
2023-01-09T23:19:24.602Z,10.75
2023-01-09T23:21:51.632Z,10.80
2023-01-09T23:24:18.364Z,10.76
2023-01-09T23:26:45.474Z,10.79
2023-01-09T23:29:12.670Z,10.70
2023-01-09T23:31:39.677Z,10.76
2023-01-09T23:34:08.150Z,10.77
2023-01-09T23:36:35.669Z,10.72
2023-01-09T23:39:04.145Z,10.70
2023-01-09T23:41:49.899Z,10.70
2023-01-09T23:44:16.634Z,10.68
2023-01-09T23:46:43.608Z,10.69
2023-01-09T23:49:10.430Z,10.66
2023-01-09T23:51:37.385Z,10.73
2023-01-09T23:54:04.260Z,10.66
2023-01-09T23:56:33.797Z,10.66
2023-01-09T23:59:05.177Z,10.67
